sensor_id;sensor_type;location;lat;lon;timestamp;P1;durP1;ratioP1;P2;durP2;ratioP2
32946;SDS011;54465;51.230;22.504;2023-10-09T00:01:05;2.65;;;1.42;;
32946;SDS011;54465;51.230;22.504;2023-10-09T00:06:13;4.50;;;1.80;;
32946;SDS011;54465;51.230;22.504;2023-10-09T00:11:14;6.00;;;1.90;;
32946;SDS011;54465;51.230;22.504;2023-10-09T00:16:18;2.75;;;1.40;;
32946;SDS011;54465;51.230;22.504;2023-10-09T00:21:47;4.38;;;1.65;;
32946;SDS011;54465;51.230;22.504;2023-10-09T00:26:49;5.63;;;2.55;;
32946;SDS011;54465;51.230;22.504;2023-10-09T00:32:02;1.98;;;1.52;;
32946;SDS011;54465;51.230;22.504;2023-10-09T00:37:13;3.08;;;1.75;;
32946;SDS011;54465;51.230;22.504;2023-10-09T00:42:16;3.75;;;1.77;;
32946;SDS011;54465;51.230;22.504;2023-10-09T00:47:28;3.28;;;1.58;;
32946;SDS011;54465;51.230;22.504;2023-10-09T00:52:34;4.32;;;2.20;;
32946;SDS011;54465;51.230;22.504;2023-10-09T00:57:40;2.70;;;1.88;;
32946;SDS011;54465;51.230;22.504;2023-10-09T01:02:42;3.40;;;2.13;;
32946;SDS011;54465;51.230;22.504;2023-10-09T01:07:44;4.22;;;2.10;;
32946;SDS011;54465;51.230;22.504;2023-10-09T01:12:45;3.88;;;2.03;;
32946;SDS011;54465;51.230;22.504;2023-10-09T01:17:53;4.28;;;2.30;;
32946;SDS011;54465;51.230;22.504;2023-10-09T01:22:54;5.57;;;2.00;;
32946;SDS011;54465;51.230;22.504;2023-10-09T01:27:56;4.78;;;2.45;;
32946;SDS011;54465;51.230;22.504;2023-10-09T01:32:57;3.92;;;1.90;;
32946;SDS011;54465;51.230;22.504;2023-10-09T01:37:59;3.58;;;2.17;;
32946;SDS011;54465;51.230;22.504;2023-10-09T01:42:59;3.80;;;2.08;;
32946;SDS011;54465;51.230;22.504;2023-10-09T01:48:00;5.38;;;2.20;;
32946;SDS011;54465;51.230;22.504;2023-10-09T01:53:04;5.50;;;1.63;;
32946;SDS011;54465;51.230;22.504;2023-10-09T01:58:08;5.97;;;2.10;;
32946;SDS011;54465;51.230;22.504;2023-10-09T02:03:17;4.72;;;2.17;;
32946;SDS011;54465;51.230;22.504;2023-10-09T02:08:17;5.78;;;1.95;;
32946;SDS011;54465;51.230;22.504;2023-10-09T02:13:22;2.80;;;1.63;;
32946;SDS011;54465;51.230;22.504;2023-10-09T02:23:33;8.80;;;2.53;;
32946;SDS011;54465;51.230;22.504;2023-10-09T02:28:41;4.15;;;1.80;;
32946;SDS011;54465;51.230;22.504;2023-10-09T02:33:44;3.70;;;1.83;;
32946;SDS011;54465;51.230;22.504;2023-10-09T02:38:44;4.93;;;1.67;;
32946;SDS011;54465;51.230;22.504;2023-10-09T02:43:48;4.18;;;1.67;;
32946;SDS011;54465;51.230;22.504;2023-10-09T02:48:56;2.88;;;1.35;;
32946;SDS011;54465;51.230;22.504;2023-10-09T02:54:03;4.25;;;2.15;;
32946;SDS011;54465;51.230;22.504;2023-10-09T02:59:08;3.33;;;1.77;;
32946;SDS011;54465;51.230;22.504;2023-10-09T03:04:08;3.75;;;2.00;;
32946;SDS011;54465;51.230;22.504;2023-10-09T03:09:11;3.78;;;1.63;;
32946;SDS011;54465;51.230;22.504;2023-10-09T03:14:17;2.80;;;1.73;;
32946;SDS011;54465;51.230;22.504;2023-10-09T03:19:20;3.53;;;1.85;;
32946;SDS011;54465;51.230;22.504;2023-10-09T03:24:21;4.80;;;2.13;;
32946;SDS011;54465;51.230;22.504;2023-10-09T03:29:23;3.08;;;1.70;;
32946;SDS011;54465;51.230;22.504;2023-10-09T03:34:24;5.43;;;2.33;;
32946;SDS011;54465;51.230;22.504;2023-10-09T03:39:25;5.18;;;2.53;;
32946;SDS011;54465;51.230;22.504;2023-10-09T03:44:38;4.25;;;2.20;;
32946;SDS011;54465;51.230;22.504;2023-10-09T03:49:44;5.43;;;2.35;;
32946;SDS011;54465;51.230;22.504;2023-10-09T03:54:44;5.32;;;2.22;;
32946;SDS011;54465;51.230;22.504;2023-10-09T03:59:46;7.32;;;2.20;;
32946;SDS011;54465;51.230;22.504;2023-10-09T04:04:47;4.05;;;1.75;;
32946;SDS011;54465;51.230;22.504;2023-10-09T04:09:50;5.00;;;2.38;;
32946;SDS011;54465;51.230;22.504;2023-10-09T04:15:11;3.50;;;2.15;;
32946;SDS011;54465;51.230;22.504;2023-10-09T04:20:15;5.95;;;1.95;;
32946;SDS011;54465;51.230;22.504;2023-10-09T04:25:21;3.47;;;1.75;;
32946;SDS011;54465;51.230;22.504;2023-10-09T04:30:25;4.40;;;2.07;;
32946;SDS011;54465;51.230;22.504;2023-10-09T04:35:29;4.30;;;2.13;;
32946;SDS011;54465;51.230;22.504;2023-10-09T04:40:30;5.78;;;1.73;;
32946;SDS011;54465;51.230;22.504;2023-10-09T04:45:51;4.47;;;1.90;;
32946;SDS011;54465;51.230;22.504;2023-10-09T04:51:14;5.22;;;1.80;;
32946;SDS011;54465;51.230;22.504;2023-10-09T04:56:21;3.33;;;1.50;;
32946;SDS011;54465;51.230;22.504;2023-10-09T05:01:24;3.28;;;1.90;;
32946;SDS011;54465;51.230;22.504;2023-10-09T05:06:36;4.07;;;2.05;;
32946;SDS011;54465;51.230;22.504;2023-10-09T05:11:55;6.18;;;2.10;;
32946;SDS011;54465;51.230;22.504;2023-10-09T05:17:09;4.95;;;2.10;;
32946;SDS011;54465;51.230;22.504;2023-10-09T05:22:15;3.88;;;1.70;;
32946;SDS011;54465;51.230;22.504;2023-10-09T05:27:36;4.32;;;2.00;;
32946;SDS011;54465;51.230;22.504;2023-10-09T05:32:51;3.97;;;2.08;;
32946;SDS011;54465;51.230;22.504;2023-10-09T05:38:20;6.53;;;2.15;;
32946;SDS011;54465;51.230;22.504;2023-10-09T05:43:24;5.88;;;2.80;;
32946;SDS011;54465;51.230;22.504;2023-10-09T05:48:42;4.75;;;2.22;;
32946;SDS011;54465;51.230;22.504;2023-10-09T05:53:43;4.68;;;2.00;;
32946;SDS011;54465;51.230;22.504;2023-10-09T05:58:43;4.10;;;2.13;;
32946;SDS011;54465;51.230;22.504;2023-10-09T06:04:02;5.60;;;1.88;;
32946;SDS011;54465;51.230;22.504;2023-10-09T06:09:15;6.68;;;2.13;;
32946;SDS011;54465;51.230;22.504;2023-10-09T06:14:16;4.70;;;2.03;;
32946;SDS011;54465;51.230;22.504;2023-10-09T06:19:25;5.35;;;2.15;;
32946;SDS011;54465;51.230;22.504;2023-10-09T06:24:26;3.60;;;2.08;;
32946;SDS011;54465;51.230;22.504;2023-10-09T06:29:45;4.65;;;2.95;;
32946;SDS011;54465;51.230;22.504;2023-10-09T06:34:49;5.15;;;1.80;;
32946;SDS011;54465;51.230;22.504;2023-10-09T06:39:57;4.68;;;2.22;;
32946;SDS011;54465;51.230;22.504;2023-10-09T06:45:01;5.78;;;1.90;;
32946;SDS011;54465;51.230;22.504;2023-10-09T06:50:14;4.68;;;2.35;;
32946;SDS011;54465;51.230;22.504;2023-10-09T06:55:38;4.07;;;1.98;;
32946;SDS011;54465;51.230;22.504;2023-10-09T07:01:05;3.35;;;2.22;;
32946;SDS011;54465;51.230;22.504;2023-10-09T07:06:28;5.78;;;2.58;;
32946;SDS011;54465;51.230;22.504;2023-10-09T07:11:35;4.28;;;2.08;;
32946;SDS011;54465;51.230;22.504;2023-10-09T07:21:57;6.15;;;2.30;;
32946;SDS011;54465;51.230;22.504;2023-10-09T07:27:05;6.43;;;1.90;;
32946;SDS011;54465;51.230;22.504;2023-10-09T07:32:14;10.85;;;2.95;;
32946;SDS011;54465;51.230;22.504;2023-10-09T07:37:25;9.25;;;4.97;;
32946;SDS011;54465;51.230;22.504;2023-10-09T07:42:30;10.65;;;5.25;;
32946;SDS011;54465;51.230;22.504;2023-10-09T07:47:37;6.65;;;3.20;;
32946;SDS011;54465;51.230;22.504;2023-10-09T07:53:01;6.70;;;3.22;;
32946;SDS011;54465;51.230;22.504;2023-10-09T07:58:15;7.22;;;2.70;;
32946;SDS011;54465;51.230;22.504;2023-10-09T08:03:16;6.07;;;2.97;;
32946;SDS011;54465;51.230;22.504;2023-10-09T08:08:24;7.25;;;3.22;;
32946;SDS011;54465;51.230;22.504;2023-10-09T08:13:39;6.70;;;2.95;;
32946;SDS011;54465;51.230;22.504;2023-10-09T08:19:01;6.50;;;3.08;;
32946;SDS011;54465;51.230;22.504;2023-10-09T08:24:20;7.43;;;2.90;;
32946;SDS011;54465;51.230;22.504;2023-10-09T08:29:43;10.68;;;3.22;;
32946;SDS011;54465;51.230;22.504;2023-10-09T08:34:47;6.28;;;3.20;;
32946;SDS011;54465;51.230;22.504;2023-10-09T08:39:53;8.50;;;3.60;;
32946;SDS011;54465;51.230;22.504;2023-10-09T08:44:54;5.20;;;2.60;;
32946;SDS011;54465;51.230;22.504;2023-10-09T08:49:59;5.93;;;2.83;;
32946;SDS011;54465;51.230;22.504;2023-10-09T08:54:59;3.80;;;2.35;;
32946;SDS011;54465;51.230;22.504;2023-10-09T09:00:00;4.07;;;1.92;;
32946;SDS011;54465;51.230;22.504;2023-10-09T09:05:16;4.55;;;2.15;;
32946;SDS011;54465;51.230;22.504;2023-10-09T09:10:18;3.45;;;1.90;;
32946;SDS011;54465;51.230;22.504;2023-10-09T09:15:35;4.00;;;2.17;;
32946;SDS011;54465;51.230;22.504;2023-10-09T09:20:39;5.43;;;2.30;;
32946;SDS011;54465;51.230;22.504;2023-10-09T09:25:42;5.80;;;2.10;;
32946;SDS011;54465;51.230;22.504;2023-10-09T09:31:10;4.55;;;2.67;;
32946;SDS011;54465;51.230;22.504;2023-10-09T09:36:13;5.22;;;2.63;;
32946;SDS011;54465;51.230;22.504;2023-10-09T09:41:14;7.53;;;2.65;;
32946;SDS011;54465;51.230;22.504;2023-10-09T09:46:26;4.93;;;2.53;;
32946;SDS011;54465;51.230;22.504;2023-10-09T09:51:33;5.25;;;2.22;;
32946;SDS011;54465;51.230;22.504;2023-10-09T09:56:34;4.13;;;1.90;;
32946;SDS011;54465;51.230;22.504;2023-10-09T10:01:39;2.22;;;1.20;;
32946;SDS011;54465;51.230;22.504;2023-10-09T10:06:40;3.42;;;1.35;;
32946;SDS011;54465;51.230;22.504;2023-10-09T10:11:45;1.80;;;1.08;;
32946;SDS011;54465;51.230;22.504;2023-10-09T10:17:03;2.40;;;1.10;;
32946;SDS011;54465;51.230;22.504;2023-10-09T10:22:28;3.92;;;1.27;;
32946;SDS011;54465;51.230;22.504;2023-10-09T10:27:33;2.80;;;1.47;;
32946;SDS011;54465;51.230;22.504;2023-10-09T10:37:51;2.33;;;1.08;;
32946;SDS011;54465;51.230;22.504;2023-10-09T10:42:51;3.70;;;1.33;;
32946;SDS011;54465;51.230;22.504;2023-10-09T10:48:09;2.22;;;1.33;;
32946;SDS011;54465;51.230;22.504;2023-10-09T10:53:23;1.90;;;1.02;;
32946;SDS011;54465;51.230;22.504;2023-10-09T10:58:27;4.32;;;2.00;;
32946;SDS011;54465;51.230;22.504;2023-10-09T11:03:47;3.53;;;1.58;;
32946;SDS011;54465;51.230;22.504;2023-10-09T11:08:53;2.33;;;1.35;;
32946;SDS011;54465;51.230;22.504;2023-10-09T11:13:54;7.93;;;2.35;;
32946;SDS011;54465;51.230;22.504;2023-10-09T11:18:57;3.85;;;1.65;;
32946;SDS011;54465;51.230;22.504;2023-10-09T11:24:00;4.28;;;1.70;;
32946;SDS011;54465;51.230;22.504;2023-10-09T11:29:21;4.13;;;1.98;;
32946;SDS011;54465;51.230;22.504;2023-10-09T11:34:41;3.75;;;1.90;;
32946;SDS011;54465;51.230;22.504;2023-10-09T11:39:51;4.57;;;2.25;;
32946;SDS011;54465;51.230;22.504;2023-10-09T11:44:55;4.32;;;2.20;;
32946;SDS011;54465;51.230;22.504;2023-10-09T11:49:56;5.43;;;2.35;;
32946;SDS011;54465;51.230;22.504;2023-10-09T11:55:06;4.00;;;2.53;;
32946;SDS011;54465;51.230;22.504;2023-10-09T12:00:07;7.55;;;3.17;;
32946;SDS011;54465;51.230;22.504;2023-10-09T12:05:28;8.00;;;4.25;;
32946;SDS011;54465;51.230;22.504;2023-10-09T12:10:29;5.90;;;3.58;;
32946;SDS011;54465;51.230;22.504;2023-10-09T12:15:30;6.32;;;2.97;;
32946;SDS011;54465;51.230;22.504;2023-10-09T12:20:37;6.50;;;3.53;;
32946;SDS011;54465;51.230;22.504;2023-10-09T12:25:38;5.32;;;2.65;;
32946;SDS011;54465;51.230;22.504;2023-10-09T12:30:38;6.47;;;3.50;;
32946;SDS011;54465;51.230;22.504;2023-10-09T12:35:40;5.38;;;3.25;;
32946;SDS011;54465;51.230;22.504;2023-10-09T12:40:41;7.13;;;3.55;;
32946;SDS011;54465;51.230;22.504;2023-10-09T12:45:50;8.00;;;3.78;;
32946;SDS011;54465;51.230;22.504;2023-10-09T12:50:51;7.95;;;3.75;;
32946;SDS011;54465;51.230;22.504;2023-10-09T12:55:54;8.07;;;4.03;;
32946;SDS011;54465;51.230;22.504;2023-10-09T13:00:56;11.38;;;5.10;;
32946;SDS011;54465;51.230;22.504;2023-10-09T13:06:09;7.18;;;4.07;;
32946;SDS011;54465;51.230;22.504;2023-10-09T13:11:12;7.60;;;4.18;;
32946;SDS011;54465;51.230;22.504;2023-10-09T13:16:17;10.07;;;4.45;;
32946;SDS011;54465;51.230;22.504;2023-10-09T13:21:25;9.88;;;5.43;;
32946;SDS011;54465;51.230;22.504;2023-10-09T13:26:27;9.60;;;4.30;;
32946;SDS011;54465;51.230;22.504;2023-10-09T13:31:30;5.93;;;3.65;;
32946;SDS011;54465;51.230;22.504;2023-10-09T13:36:34;8.32;;;3.45;;
32946;SDS011;54465;51.230;22.504;2023-10-09T13:41:34;6.70;;;4.38;;
32946;SDS011;54465;51.230;22.504;2023-10-09T13:46:35;11.18;;;4.38;;
32946;SDS011;54465;51.230;22.504;2023-10-09T13:51:41;7.68;;;4.20;;
32946;SDS011;54465;51.230;22.504;2023-10-09T13:56:44;5.05;;;3.30;;
32946;SDS011;54465;51.230;22.504;2023-10-09T14:01:45;6.00;;;3.75;;
32946;SDS011;54465;51.230;22.504;2023-10-09T14:06:48;8.25;;;3.95;;
32946;SDS011;54465;51.230;22.504;2023-10-09T14:11:49;9.27;;;4.60;;
32946;SDS011;54465;51.230;22.504;2023-10-09T14:16:52;9.60;;;3.58;;
32946;SDS011;54465;51.230;22.504;2023-10-09T14:21:57;5.07;;;3.13;;
32946;SDS011;54465;51.230;22.504;2023-10-09T14:26:58;8.00;;;4.28;;
32946;SDS011;54465;51.230;22.504;2023-10-09T14:31:59;7.70;;;3.53;;
32946;SDS011;54465;51.230;22.504;2023-10-09T14:37:00;6.03;;;3.80;;
32946;SDS011;54465;51.230;22.504;2023-10-09T14:42:00;7.75;;;3.72;;
32946;SDS011;54465;51.230;22.504;2023-10-09T14:47:09;6.55;;;3.78;;
32946;SDS011;54465;51.230;22.504;2023-10-09T14:52:10;8.38;;;4.70;;
32946;SDS011;54465;51.230;22.504;2023-10-09T14:57:11;7.25;;;3.80;;
32946;SDS011;54465;51.230;22.504;2023-10-09T15:02:12;9.27;;;4.72;;
32946;SDS011;54465;51.230;22.504;2023-10-09T15:07:12;10.02;;;4.85;;
32946;SDS011;54465;51.230;22.504;2023-10-09T15:12:15;8.88;;;4.53;;
32946;SDS011;54465;51.230;22.504;2023-10-09T15:17:16;7.72;;;4.05;;
32946;SDS011;54465;51.230;22.504;2023-10-09T15:22:17;7.05;;;4.55;;
32946;SDS011;54465;51.230;22.504;2023-10-09T15:27:17;10.43;;;5.70;;
32946;SDS011;54465;51.230;22.504;2023-10-09T15:32:18;12.23;;;5.50;;
32946;SDS011;54465;51.230;22.504;2023-10-09T15:37:22;9.27;;;5.43;;
32946;SDS011;54465;51.230;22.504;2023-10-09T15:42:23;9.63;;;5.00;;
32946;SDS011;54465;51.230;22.504;2023-10-09T15:47:23;12.43;;;6.93;;
32946;SDS011;54465;51.230;22.504;2023-10-09T15:52:24;14.25;;;7.07;;
32946;SDS011;54465;51.230;22.504;2023-10-09T15:57:26;17.40;;;7.53;;
32946;SDS011;54465;51.230;22.504;2023-10-09T16:02:27;12.90;;;7.78;;
32946;SDS011;54465;51.230;22.504;2023-10-09T16:07:27;20.15;;;8.38;;
32946;SDS011;54465;51.230;22.504;2023-10-09T16:12:28;12.68;;;7.30;;
32946;SDS011;54465;51.230;22.504;2023-10-09T16:17:31;13.65;;;6.93;;
32946;SDS011;54465;51.230;22.504;2023-10-09T16:22:32;12.73;;;6.70;;
32946;SDS011;54465;51.230;22.504;2023-10-09T16:27:32;11.25;;;7.43;;
32946;SDS011;54465;51.230;22.504;2023-10-09T16:32:33;12.05;;;7.03;;
32946;SDS011;54465;51.230;22.504;2023-10-09T16:37:33;18.73;;;10.32;;
32946;SDS011;54465;51.230;22.504;2023-10-09T16:42:34;18.65;;;9.75;;
32946;SDS011;54465;51.230;22.504;2023-10-09T16:47:36;25.48;;;11.85;;
32946;SDS011;54465;51.230;22.504;2023-10-09T16:52:38;20.60;;;10.15;;
32946;SDS011;54465;51.230;22.504;2023-10-09T16:57:39;16.27;;;8.50;;
32946;SDS011;54465;51.230;22.504;2023-10-09T17:02:41;20.00;;;10.93;;
32946;SDS011;54465;51.230;22.504;2023-10-09T17:07:41;47.97;;;22.42;;
32946;SDS011;54465;51.230;22.504;2023-10-09T17:12:45;50.30;;;22.65;;
32946;SDS011;54465;51.230;22.504;2023-10-09T17:17:47;42.65;;;20.25;;
32946;SDS011;54465;51.230;22.504;2023-10-09T17:22:51;38.35;;;18.08;;
32946;SDS011;54465;51.230;22.504;2023-10-09T17:27:52;34.30;;;16.30;;
32946;SDS011;54465;51.230;22.504;2023-10-09T17:32:54;24.80;;;13.25;;
32946;SDS011;54465;51.230;22.504;2023-10-09T17:37:54;24.13;;;12.82;;
32946;SDS011;54465;51.230;22.504;2023-10-09T17:42:56;18.63;;;9.77;;
32946;SDS011;54465;51.230;22.504;2023-10-09T17:47:57;23.67;;;11.45;;
32946;SDS011;54465;51.230;22.504;2023-10-09T17:52:59;23.70;;;11.63;;
32946;SDS011;54465;51.230;22.504;2023-10-09T17:58:02;19.33;;;11.57;;
32946;SDS011;54465;51.230;22.504;2023-10-09T18:03:07;21.15;;;12.52;;
32946;SDS011;54465;51.230;22.504;2023-10-09T18:08:08;29.42;;;17.00;;
32946;SDS011;54465;51.230;22.504;2023-10-09T18:13:14;24.38;;;14.68;;
32946;SDS011;54465;51.230;22.504;2023-10-09T18:18:17;16.70;;;10.68;;
32946;SDS011;54465;51.230;22.504;2023-10-09T18:23:20;19.50;;;10.70;;
32946;SDS011;54465;51.230;22.504;2023-10-09T18:28:20;17.42;;;10.95;;
32946;SDS011;54465;51.230;22.504;2023-10-09T18:33:21;15.95;;;10.77;;
32946;SDS011;54465;51.230;22.504;2023-10-09T18:38:23;21.08;;;12.00;;
32946;SDS011;54465;51.230;22.504;2023-10-09T18:43:23;19.20;;;11.27;;
32946;SDS011;54465;51.230;22.504;2023-10-09T18:48:28;19.33;;;11.88;;
32946;SDS011;54465;51.230;22.504;2023-10-09T18:53:29;22.55;;;12.50;;
32946;SDS011;54465;51.230;22.504;2023-10-09T18:58:31;18.42;;;10.32;;
32946;SDS011;54465;51.230;22.504;2023-10-09T19:03:32;17.02;;;11.40;;
32946;SDS011;54465;51.230;22.504;2023-10-09T19:08:36;16.33;;;11.10;;
32946;SDS011;54465;51.230;22.504;2023-10-09T19:13:37;19.70;;;12.00;;
32946;SDS011;54465;51.230;22.504;2023-10-09T19:18:38;23.23;;;11.40;;
32946;SDS011;54465;51.230;22.504;2023-10-09T19:23:39;19.40;;;12.45;;
32946;SDS011;54465;51.230;22.504;2023-10-09T19:28:41;19.77;;;13.20;;
32946;SDS011;54465;51.230;22.504;2023-10-09T19:33:43;21.65;;;11.57;;
32946;SDS011;54465;51.230;22.504;2023-10-09T19:38:44;16.17;;;9.90;;
32946;SDS011;54465;51.230;22.504;2023-10-09T19:43:50;20.17;;;10.13;;
32946;SDS011;54465;51.230;22.504;2023-10-09T19:48:52;16.40;;;10.85;;
32946;SDS011;54465;51.230;22.504;2023-10-09T19:53:55;16.92;;;10.73;;
32946;SDS011;54465;51.230;22.504;2023-10-09T19:58:55;17.00;;;10.40;;
32946;SDS011;54465;51.230;22.504;2023-10-09T20:03:57;19.20;;;10.25;;
32946;SDS011;54465;51.230;22.504;2023-10-09T20:08:58;14.52;;;9.55;;
32946;SDS011;54465;51.230;22.504;2023-10-09T20:13:59;15.77;;;8.95;;
32946;SDS011;54465;51.230;22.504;2023-10-09T20:19:00;17.15;;;9.35;;
32946;SDS011;54465;51.230;22.504;2023-10-09T20:24:01;12.43;;;8.10;;
32946;SDS011;54465;51.230;22.504;2023-10-09T20:29:02;16.88;;;8.55;;
32946;SDS011;54465;51.230;22.504;2023-10-09T20:34:04;15.02;;;9.32;;
32946;SDS011;54465;51.230;22.504;2023-10-09T20:39:09;15.93;;;9.95;;
32946;SDS011;54465;51.230;22.504;2023-10-09T20:44:10;15.23;;;9.63;;
32946;SDS011;54465;51.230;22.504;2023-10-09T20:49:11;16.33;;;9.35;;
32946;SDS011;54465;51.230;22.504;2023-10-09T20:54:14;14.10;;;9.07;;
32946;SDS011;54465;51.230;22.504;2023-10-09T20:59:15;17.05;;;9.48;;
32946;SDS011;54465;51.230;22.504;2023-10-09T21:04:16;16.10;;;8.93;;
32946;SDS011;54465;51.230;22.504;2023-10-09T21:09:16;15.48;;;8.43;;
32946;SDS011;54465;51.230;22.504;2023-10-09T21:14:17;12.48;;;7.40;;
32946;SDS011;54465;51.230;22.504;2023-10-09T21:19:17;12.55;;;7.15;;
32946;SDS011;54465;51.230;22.504;2023-10-09T21:24:18;12.07;;;7.18;;
32946;SDS011;54465;51.230;22.504;2023-10-09T21:29:18;11.73;;;6.82;;
32946;SDS011;54465;51.230;22.504;2023-10-09T21:34:19;10.82;;;7.47;;
32946;SDS011;54465;51.230;22.504;2023-10-09T21:39:19;13.55;;;7.60;;
32946;SDS011;54465;51.230;22.504;2023-10-09T21:44:20;18.70;;;10.02;;
32946;SDS011;54465;51.230;22.504;2023-10-09T21:49:20;14.38;;;8.98;;
32946;SDS011;54465;51.230;22.504;2023-10-09T21:54:21;14.82;;;8.95;;
32946;SDS011;54465;51.230;22.504;2023-10-09T21:59:21;12.57;;;7.07;;
32946;SDS011;54465;51.230;22.504;2023-10-09T22:04:22;13.43;;;7.40;;
32946;SDS011;54465;51.230;22.504;2023-10-09T22:09:25;13.98;;;6.68;;
32946;SDS011;54465;51.230;22.504;2023-10-09T22:14:26;11.32;;;7.03;;
32946;SDS011;54465;51.230;22.504;2023-10-09T22:19:27;9.55;;;6.30;;
32946;SDS011;54465;51.230;22.504;2023-10-09T22:24:38;10.85;;;6.20;;
32946;SDS011;54465;51.230;22.504;2023-10-09T22:29:43;15.25;;;6.93;;
32946;SDS011;54465;51.230;22.504;2023-10-09T22:34:45;10.20;;;6.95;;
32946;SDS011;54465;51.230;22.504;2023-10-09T22:39:46;11.15;;;6.50;;
32946;SDS011;54465;51.230;22.504;2023-10-09T22:44:46;8.32;;;5.78;;
32946;SDS011;54465;51.230;22.504;2023-10-09T22:49:48;10.20;;;5.68;;
32946;SDS011;54465;51.230;22.504;2023-10-09T22:54:52;10.15;;;6.43;;
32946;SDS011;54465;51.230;22.504;2023-10-09T22:59:55;10.68;;;6.88;;
32946;SDS011;54465;51.230;22.504;2023-10-09T23:05:00;9.63;;;5.75;;
32946;SDS011;54465;51.230;22.504;2023-10-09T23:10:04;9.68;;;6.50;;
32946;SDS011;54465;51.230;22.504;2023-10-09T23:15:25;8.95;;;5.72;;
32946;SDS011;54465;51.230;22.504;2023-10-09T23:20:36;8.77;;;6.13;;
32946;SDS011;54465;51.230;22.504;2023-10-09T23:25:56;9.82;;;6.03;;
32946;SDS011;54465;51.230;22.504;2023-10-09T23:31:05;9.48;;;5.82;;
32946;SDS011;54465;51.230;22.504;2023-10-09T23:36:36;8.30;;;5.70;;
32946;SDS011;54465;51.230;22.504;2023-10-09T23:41:43;10.80;;;5.65;;
32946;SDS011;54465;51.230;22.504;2023-10-09T23:46:58;12.07;;;6.68;;
32946;SDS011;54465;51.230;22.504;2023-10-09T23:51:59;8.93;;;5.57;;
32946;SDS011;54465;51.230;22.504;2023-10-09T23:57:00;8.38;;;6.45;;
